sensor_id;sensor_type;location;lat;lon;timestamp;pressure;altitude;pressure_sealevel;temperature;humidity
43071;BME280;36278;47.952;21.714;2023-11-19T00:01:16;100941.50;;;1.71;100.00
43071;BME280;36278;47.952;21.714;2023-11-19T00:03:42;100931.06;;;1.69;100.00
43071;BME280;36278;47.952;21.714;2023-11-19T00:06:08;100924.94;;;1.71;100.00
43071;BME280;36278;47.952;21.714;2023-11-19T00:08:35;100913.97;;;1.59;100.00
43071;BME280;36278;47.952;21.714;2023-11-19T00:11:01;100923.22;;;1.69;100.00
43071;BME280;36278;47.952;21.714;2023-11-19T00:13:28;100925.81;;;1.71;100.00
43071;BME280;36278;47.952;21.714;2023-11-19T00:15:55;100910.38;;;1.63;100.00
43071;BME280;36278;47.952;21.714;2023-11-19T00:18:22;100912.56;;;1.77;100.00
43071;BME280;36278;47.952;21.714;2023-11-19T00:20:49;100907.84;;;1.90;100.00
43071;BME280;36278;47.952;21.714;2023-11-19T00:23:15;100925.44;;;1.83;100.00
43071;BME280;36278;47.952;21.714;2023-11-19T00:25:41;100928.81;;;1.87;100.00
43071;BME280;36278;47.952;21.714;2023-11-19T00:28:07;100940.84;;;1.92;100.00
43071;BME280;36278;47.952;21.714;2023-11-19T00:30:33;100937.31;;;1.93;100.00
43071;BME280;36278;47.952;21.714;2023-11-19T00:32:59;100927.38;;;2.06;100.00
43071;BME280;36278;47.952;21.714;2023-11-19T00:35:25;100918.09;;;2.24;100.00
43071;BME280;36278;47.952;21.714;2023-11-19T00:37:50;100916.22;;;2.28;100.00
43071;BME280;36278;47.952;21.714;2023-11-19T00:40:17;100924.06;;;2.28;98.68
43071;BME280;36278;47.952;21.714;2023-11-19T00:42:43;100922.59;;;2.19;98.93
43071;BME280;36278;47.952;21.714;2023-11-19T00:45:09;100917.88;;;2.04;100.00
43071;BME280;36278;47.952;21.714;2023-11-19T00:47:35;100919.00;;;2.23;99.42
43071;BME280;36278;47.952;21.714;2023-11-19T00:50:02;100912.47;;;2.08;99.58
43071;BME280;36278;47.952;21.714;2023-11-19T00:52:27;100902.94;;;2.07;100.00
43071;BME280;36278;47.952;21.714;2023-11-19T00:54:53;100912.97;;;2.21;100.00
43071;BME280;36278;47.952;21.714;2023-11-19T00:57:19;100920.38;;;2.07;99.00
43071;BME280;36278;47.952;21.714;2023-11-19T00:59:44;100909.63;;;2.16;99.76
43071;BME280;36278;47.952;21.714;2023-11-19T01:02:10;100916.38;;;2.23;100.00
43071;BME280;36278;47.952;21.714;2023-11-19T01:04:36;100901.66;;;2.20;98.96
43071;BME280;36278;47.952;21.714;2023-11-19T01:07:02;100890.25;;;2.23;99.24
43071;BME280;36278;47.952;21.714;2023-11-19T01:09:32;100897.13;;;2.25;99.82
43071;BME280;36278;47.952;21.714;2023-11-19T01:12:00;100896.50;;;2.17;100.00
43071;BME280;36278;47.952;21.714;2023-11-19T01:14:26;100883.91;;;2.04;100.00
43071;BME280;36278;47.952;21.714;2023-11-19T01:16:52;100896.91;;;2.05;100.00
43071;BME280;36278;47.952;21.714;2023-11-19T01:19:19;100901.38;;;2.02;99.46
43071;BME280;36278;47.952;21.714;2023-11-19T01:21:45;100900.63;;;1.98;100.00
43071;BME280;36278;47.952;21.714;2023-11-19T01:24:10;100895.72;;;1.87;100.00
43071;BME280;36278;47.952;21.714;2023-11-19T01:26:38;100886.88;;;1.91;100.00
43071;BME280;36278;47.952;21.714;2023-11-19T01:29:04;100887.56;;;1.98;100.00
43071;BME280;36278;47.952;21.714;2023-11-19T01:31:30;100878.88;;;1.98;100.00
43071;BME280;36278;47.952;21.714;2023-11-19T01:33:59;100879.78;;;1.96;100.00
43071;BME280;36278;47.952;21.714;2023-11-19T01:36:24;100884.09;;;1.98;100.00
43071;BME280;36278;47.952;21.714;2023-11-19T01:38:50;100892.00;;;1.94;100.00
43071;BME280;36278;47.952;21.714;2023-11-19T01:41:15;100894.66;;;1.93;100.00
43071;BME280;36278;47.952;21.714;2023-11-19T01:43:40;100893.19;;;1.84;100.00
43071;BME280;36278;47.952;21.714;2023-11-19T01:46:07;100888.13;;;1.80;100.00
43071;BME280;36278;47.952;21.714;2023-11-19T01:48:37;100876.56;;;1.87;100.00
43071;BME280;36278;47.952;21.714;2023-11-19T01:51:05;100881.84;;;1.85;100.00
43071;BME280;36278;47.952;21.714;2023-11-19T01:53:33;100881.94;;;1.82;100.00
43071;BME280;36278;47.952;21.714;2023-11-19T01:56:00;100874.84;;;1.86;100.00
43071;BME280;36278;47.952;21.714;2023-11-19T01:58:26;100861.34;;;1.73;100.00
43071;BME280;36278;47.952;21.714;2023-11-19T02:00:52;100870.06;;;1.72;100.00
43071;BME280;36278;47.952;21.714;2023-11-19T02:03:19;100858.66;;;1.75;100.00
43071;BME280;36278;47.952;21.714;2023-11-19T02:05:45;100869.00;;;1.78;100.00
43071;BME280;36278;47.952;21.714;2023-11-19T02:08:14;100862.75;;;1.83;100.00
43071;BME280;36278;47.952;21.714;2023-11-19T02:10:39;100867.19;;;1.81;100.00
43071;BME280;36278;47.952;21.714;2023-11-19T02:13:05;100858.53;;;1.79;100.00
43071;BME280;36278;47.952;21.714;2023-11-19T02:15:32;100859.63;;;1.72;100.00
43071;BME280;36278;47.952;21.714;2023-11-19T02:18:27;100854.44;;;1.71;100.00
43071;BME280;36278;47.952;21.714;2023-11-19T02:20:59;100847.50;;;1.69;100.00
43071;BME280;36278;47.952;21.714;2023-11-19T02:23:30;100852.69;;;1.71;100.00
43071;BME280;36278;47.952;21.714;2023-11-19T02:26:25;100853.63;;;1.68;100.00
43071;BME280;36278;47.952;21.714;2023-11-19T02:28:54;100855.31;;;1.71;100.00
43071;BME280;36278;47.952;21.714;2023-11-19T02:31:26;100849.41;;;1.64;100.00
43071;BME280;36278;47.952;21.714;2023-11-19T02:33:55;100859.03;;;1.62;100.00
43071;BME280;36278;47.952;21.714;2023-11-19T02:36:21;100854.72;;;1.61;100.00
43071;BME280;36278;47.952;21.714;2023-11-19T02:38:46;100848.75;;;1.58;100.00
43071;BME280;36278;47.952;21.714;2023-11-19T02:41:13;100859.13;;;1.59;100.00
43071;BME280;36278;47.952;21.714;2023-11-19T02:43:39;100855.66;;;1.59;100.00
43071;BME280;36278;47.952;21.714;2023-11-19T02:46:05;100845.44;;;1.51;100.00
43071;BME280;36278;47.952;21.714;2023-11-19T02:48:37;100847.25;;;1.49;100.00
43071;BME280;36278;47.952;21.714;2023-11-19T02:51:03;100838.69;;;1.44;100.00
43071;BME280;36278;47.952;21.714;2023-11-19T02:53:34;100844.78;;;1.45;100.00
43071;BME280;36278;47.952;21.714;2023-11-19T02:56:00;100835.28;;;1.42;100.00
43071;BME280;36278;47.952;21.714;2023-11-19T02:58:37;100840.72;;;1.34;100.00
43071;BME280;36278;47.952;21.714;2023-11-19T03:01:03;100841.75;;;1.29;100.00
43071;BME280;36278;47.952;21.714;2023-11-19T03:03:38;100835.00;;;1.22;100.00
43071;BME280;36278;47.952;21.714;2023-11-19T03:06:06;100834.16;;;1.21;100.00
43071;BME280;36278;47.952;21.714;2023-11-19T03:08:34;100836.84;;;1.18;100.00
43071;BME280;36278;47.952;21.714;2023-11-19T03:11:00;100833.56;;;1.11;100.00
43071;BME280;36278;47.952;21.714;2023-11-19T03:13:25;100837.22;;;1.06;100.00
43071;BME280;36278;47.952;21.714;2023-11-19T03:15:52;100844.22;;;1.04;100.00
43071;BME280;36278;47.952;21.714;2023-11-19T03:18:19;100834.84;;;0.97;100.00
43071;BME280;36278;47.952;21.714;2023-11-19T03:20:46;100838.25;;;1.00;100.00
43071;BME280;36278;47.952;21.714;2023-11-19T03:23:12;100832.16;;;1.00;100.00
43071;BME280;36278;47.952;21.714;2023-11-19T03:25:37;100833.91;;;0.99;100.00
43071;BME280;36278;47.952;21.714;2023-11-19T03:28:04;100834.88;;;0.95;100.00
43071;BME280;36278;47.952;21.714;2023-11-19T03:30:30;100815.81;;;0.93;100.00
43071;BME280;36278;47.952;21.714;2023-11-19T03:32:56;100801.88;;;0.94;100.00
43071;BME280;36278;47.952;21.714;2023-11-19T03:35:23;100807.09;;;0.94;100.00
43071;BME280;36278;47.952;21.714;2023-11-19T03:37:49;100802.56;;;1.01;100.00
43071;BME280;36278;47.952;21.714;2023-11-19T03:40:15;100801.72;;;1.00;100.00
43071;BME280;36278;47.952;21.714;2023-11-19T03:42:40;100794.22;;;0.90;100.00
43071;BME280;36278;47.952;21.714;2023-11-19T03:45:07;100802.63;;;0.99;100.00
43071;BME280;36278;47.952;21.714;2023-11-19T03:47:35;100791.91;;;1.08;100.00
43071;BME280;36278;47.952;21.714;2023-11-19T03:50:01;100788.97;;;1.19;100.00
43071;BME280;36278;47.952;21.714;2023-11-19T03:52:27;100784.78;;;1.15;100.00
43071;BME280;36278;47.952;21.714;2023-11-19T03:54:53;100788.53;;;1.05;100.00
43071;BME280;36278;47.952;21.714;2023-11-19T03:57:20;100787.88;;;0.98;100.00
43071;BME280;36278;47.952;21.714;2023-11-19T03:59:46;100771.50;;;0.93;100.00
43071;BME280;36278;47.952;21.714;2023-11-19T04:02:11;100780.69;;;1.06;100.00
43071;BME280;36278;47.952;21.714;2023-11-19T04:04:37;100772.22;;;0.98;100.00
43071;BME280;36278;47.952;21.714;2023-11-19T04:07:04;100757.38;;;1.00;100.00
43071;BME280;36278;47.952;21.714;2023-11-19T04:09:30;100749.44;;;1.03;100.00
43071;BME280;36278;47.952;21.714;2023-11-19T04:11:58;100746.03;;;1.01;100.00
43071;BME280;36278;47.952;21.714;2023-11-19T04:14:23;100741.72;;;1.00;100.00
43071;BME280;36278;47.952;21.714;2023-11-19T04:16:49;100750.56;;;0.95;100.00
43071;BME280;36278;47.952;21.714;2023-11-19T04:19:16;100760.31;;;0.90;100.00
43071;BME280;36278;47.952;21.714;2023-11-19T04:21:41;100767.13;;;0.94;100.00
43071;BME280;36278;47.952;21.714;2023-11-19T04:24:11;100765.47;;;0.91;100.00
43071;BME280;36278;47.952;21.714;2023-11-19T04:26:41;100762.13;;;0.86;100.00
43071;BME280;36278;47.952;21.714;2023-11-19T04:29:09;100777.09;;;0.79;100.00
43071;BME280;36278;47.952;21.714;2023-11-19T04:31:34;100784.97;;;0.78;100.00
43071;BME280;36278;47.952;21.714;2023-11-19T04:34:00;100781.59;;;0.74;100.00
43071;BME280;36278;47.952;21.714;2023-11-19T04:36:26;100783.34;;;0.74;100.00
43071;BME280;36278;47.952;21.714;2023-11-19T04:38:51;100780.69;;;0.75;100.00
43071;BME280;36278;47.952;21.714;2023-11-19T04:41:18;100787.63;;;0.76;100.00
43071;BME280;36278;47.952;21.714;2023-11-19T04:43:44;100774.78;;;0.69;100.00
43071;BME280;36278;47.952;21.714;2023-11-19T04:46:09;100780.97;;;0.65;100.00
43071;BME280;36278;47.952;21.714;2023-11-19T04:48:35;100769.78;;;0.61;100.00
43071;BME280;36278;47.952;21.714;2023-11-19T04:51:00;100767.19;;;0.61;100.00
43071;BME280;36278;47.952;21.714;2023-11-19T04:53:26;100763.72;;;0.61;100.00
43071;BME280;36278;47.952;21.714;2023-11-19T04:55:51;100762.91;;;0.59;100.00
43071;BME280;36278;47.952;21.714;2023-11-19T04:58:17;100769.03;;;0.58;100.00
43071;BME280;36278;47.952;21.714;2023-11-19T05:00:42;100774.19;;;0.59;100.00
43071;BME280;36278;47.952;21.714;2023-11-19T05:03:08;100785.25;;;0.67;100.00
43071;BME280;36278;47.952;21.714;2023-11-19T05:05:34;100784.09;;;0.77;100.00
43071;BME280;36278;47.952;21.714;2023-11-19T05:07:59;100756.19;;;0.81;100.00
43071;BME280;36278;47.952;21.714;2023-11-19T05:10:24;100744.78;;;0.85;100.00
43071;BME280;36278;47.952;21.714;2023-11-19T05:12:51;100747.44;;;0.83;100.00
43071;BME280;36278;47.952;21.714;2023-11-19T05:15:17;100753.56;;;0.82;100.00
43071;BME280;36278;47.952;21.714;2023-11-19T05:17:42;100757.13;;;0.78;100.00
43071;BME280;36278;47.952;21.714;2023-11-19T05:20:08;100753.72;;;0.76;100.00
43071;BME280;36278;47.952;21.714;2023-11-19T05:22:42;100745.16;;;0.71;100.00
43071;BME280;36278;47.952;21.714;2023-11-19T05:25:08;100742.59;;;0.70;100.00
43071;BME280;36278;47.952;21.714;2023-11-19T05:27:35;100738.44;;;0.63;100.00
43071;BME280;36278;47.952;21.714;2023-11-19T05:30:02;100722.97;;;0.56;100.00
43071;BME280;36278;47.952;21.714;2023-11-19T05:32:28;100718.66;;;0.55;100.00
43071;BME280;36278;47.952;21.714;2023-11-19T05:34:53;100727.38;;;0.54;100.00
43071;BME280;36278;47.952;21.714;2023-11-19T05:37:19;100726.47;;;0.57;100.00
43071;BME280;36278;47.952;21.714;2023-11-19T05:39:45;100735.16;;;0.56;100.00
43071;BME280;36278;47.952;21.714;2023-11-19T05:42:10;100736.97;;;0.54;100.00
43071;BME280;36278;47.952;21.714;2023-11-19T05:44:36;100735.34;;;0.50;100.00
43071;BME280;36278;47.952;21.714;2023-11-19T05:47:03;100737.00;;;0.52;100.00
43071;BME280;36278;47.952;21.714;2023-11-19T05:49:29;100735.13;;;0.58;100.00
43071;BME280;36278;47.952;21.714;2023-11-19T05:51:54;100744.63;;;0.60;100.00
43071;BME280;36278;47.952;21.714;2023-11-19T05:54:21;100739.19;;;0.68;100.00
43071;BME280;36278;47.952;21.714;2023-11-19T05:56:48;100728.50;;;0.77;100.00
43071;BME280;36278;47.952;21.714;2023-11-19T05:59:14;100717.97;;;0.80;100.00
43071;BME280;36278;47.952;21.714;2023-11-19T06:01:43;100711.84;;;0.81;100.00
43071;BME280;36278;47.952;21.714;2023-11-19T06:04:09;100709.00;;;0.90;100.00
43071;BME280;36278;47.952;21.714;2023-11-19T06:06:35;100718.63;;;0.87;100.00
43071;BME280;36278;47.952;21.714;2023-11-19T06:09:01;100722.91;;;0.89;100.00
43071;BME280;36278;47.952;21.714;2023-11-19T06:11:28;100723.69;;;0.93;100.00
43071;BME280;36278;47.952;21.714;2023-11-19T06:13:54;100713.31;;;0.91;100.00
43071;BME280;36278;47.952;21.714;2023-11-19T06:16:19;100732.88;;;1.04;100.00
43071;BME280;36278;47.952;21.714;2023-11-19T06:18:45;100743.25;;;1.07;100.00
43071;BME280;36278;47.952;21.714;2023-11-19T06:21:12;100749.16;;;1.12;100.00
43071;BME280;36278;47.952;21.714;2023-11-19T06:23:38;100755.56;;;1.32;100.00
43071;BME280;36278;47.952;21.714;2023-11-19T06:26:04;100743.91;;;1.42;100.00
43071;BME280;36278;47.952;21.714;2023-11-19T06:28:31;100741.03;;;1.51;100.00
43071;BME280;36278;47.952;21.714;2023-11-19T06:30:56;100733.06;;;1.56;100.00
43071;BME280;36278;47.952;21.714;2023-11-19T06:33:24;100731.84;;;1.66;100.00
43071;BME280;36278;47.952;21.714;2023-11-19T06:35:50;100742.34;;;1.64;100.00
43071;BME280;36278;47.952;21.714;2023-11-19T06:38:15;100736.22;;;1.65;100.00
43071;BME280;36278;47.952;21.714;2023-11-19T06:40:41;100740.41;;;1.71;100.00
43071;BME280;36278;47.952;21.714;2023-11-19T06:43:06;100742.13;;;1.71;100.00
43071;BME280;36278;47.952;21.714;2023-11-19T06:45:34;100747.94;;;1.80;100.00
43071;BME280;36278;47.952;21.714;2023-11-19T06:48:01;100752.91;;;1.88;100.00
43071;BME280;36278;47.952;21.714;2023-11-19T06:50:28;100757.31;;;1.86;100.00
43071;BME280;36278;47.952;21.714;2023-11-19T06:52:54;100752.06;;;1.87;100.00
43071;BME280;36278;47.952;21.714;2023-11-19T06:55:19;100753.91;;;1.84;100.00
43071;BME280;36278;47.952;21.714;2023-11-19T06:57:44;100749.09;;;1.72;100.00
43071;BME280;36278;47.952;21.714;2023-11-19T07:00:11;100758.22;;;1.85;100.00
43071;BME280;36278;47.952;21.714;2023-11-19T07:02:37;100749.78;;;1.77;100.00
43071;BME280;36278;47.952;21.714;2023-11-19T07:05:02;100771.53;;;2.04;100.00
43071;BME280;36278;47.952;21.714;2023-11-19T07:07:30;100766.75;;;2.16;100.00
43071;BME280;36278;47.952;21.714;2023-11-19T07:09:56;100771.59;;;2.27;99.75
43071;BME280;36278;47.952;21.714;2023-11-19T07:12:22;100777.19;;;2.16;100.00
43071;BME280;36278;47.952;21.714;2023-11-19T07:14:47;100783.13;;;1.95;100.00
43071;BME280;36278;47.952;21.714;2023-11-19T07:17:13;100777.16;;;1.91;100.00
43071;BME280;36278;47.952;21.714;2023-11-19T07:19:39;100777.91;;;1.95;100.00
43071;BME280;36278;47.952;21.714;2023-11-19T07:22:04;100753.28;;;2.02;100.00
43071;BME280;36278;47.952;21.714;2023-11-19T07:24:31;100744.00;;;2.20;100.00
43071;BME280;36278;47.952;21.714;2023-11-19T07:26:57;100743.34;;;2.38;100.00
43071;BME280;36278;47.952;21.714;2023-11-19T07:29:22;100746.56;;;2.70;97.06
43071;BME280;36278;47.952;21.714;2023-11-19T07:31:51;100745.19;;;2.83;94.77
43071;BME280;36278;47.952;21.714;2023-11-19T07:34:16;100751.41;;;2.80;95.15
43071;BME280;36278;47.952;21.714;2023-11-19T07:36:43;100748.16;;;2.97;94.31
43071;BME280;36278;47.952;21.714;2023-11-19T07:39:08;100756.63;;;3.04;94.46
43071;BME280;36278;47.952;21.714;2023-11-19T07:41:34;100769.25;;;3.16;93.20
43071;BME280;36278;47.952;21.714;2023-11-19T07:44:00;100763.44;;;3.08;92.85
43071;BME280;36278;47.952;21.714;2023-11-19T07:46:26;100765.31;;;2.58;96.64
43071;BME280;36278;47.952;21.714;2023-11-19T07:48:52;100762.59;;;2.84;95.72
43071;BME280;36278;47.952;21.714;2023-11-19T07:51:18;100767.31;;;2.98;93.97
43071;BME280;36278;47.952;21.714;2023-11-19T07:53:43;100772.97;;;2.87;94.72
43071;BME280;36278;47.952;21.714;2023-11-19T07:56:09;100768.88;;;3.03;93.55
43071;BME280;36278;47.952;21.714;2023-11-19T07:58:36;100759.47;;;3.21;92.97
43071;BME280;36278;47.952;21.714;2023-11-19T08:01:02;100753.50;;;3.40;91.21
43071;BME280;36278;47.952;21.714;2023-11-19T08:03:27;100738.34;;;3.48;92.32
43071;BME280;36278;47.952;21.714;2023-11-19T08:05:55;100732.84;;;3.32;90.75
43071;BME280;36278;47.952;21.714;2023-11-19T08:08:22;100734.88;;;3.47;92.97
43071;BME280;36278;47.952;21.714;2023-11-19T08:10:47;100722.47;;;3.52;92.79
43071;BME280;36278;47.952;21.714;2023-11-19T08:13:13;100731.28;;;3.50;92.43
43071;BME280;36278;47.952;21.714;2023-11-19T08:15:39;100741.94;;;3.45;94.75
43071;BME280;36278;47.952;21.714;2023-11-19T08:18:05;100733.09;;;3.48;93.16
43071;BME280;36278;47.952;21.714;2023-11-19T08:20:32;100714.00;;;3.46;93.67
43071;BME280;36278;47.952;21.714;2023-11-19T08:22:58;100722.03;;;3.41;96.02
43071;BME280;36278;47.952;21.714;2023-11-19T08:25:23;100729.47;;;3.52;95.03
43071;BME280;36278;47.952;21.714;2023-11-19T08:27:49;100728.41;;;3.56;94.66
43071;BME280;36278;47.952;21.714;2023-11-19T08:30:14;100693.59;;;3.54;94.20
43071;BME280;36278;47.952;21.714;2023-11-19T08:32:40;100714.31;;;3.60;94.04
43071;BME280;36278;47.952;21.714;2023-11-19T08:35:06;100709.72;;;3.65;93.73
43071;BME280;36278;47.952;21.714;2023-11-19T08:37:31;100719.84;;;3.52;93.88
43071;BME280;36278;47.952;21.714;2023-11-19T08:39:57;100750.09;;;3.37;97.95
43071;BME280;36278;47.952;21.714;2023-11-19T08:42:23;100745.09;;;3.31;94.69
43071;BME280;36278;47.952;21.714;2023-11-19T08:44:49;100740.56;;;3.58;95.05
43071;BME280;36278;47.952;21.714;2023-11-19T08:47:18;100752.44;;;3.67;95.33
43071;BME280;36278;47.952;21.714;2023-11-19T08:49:44;100706.47;;;3.80;94.43
43071;BME280;36278;47.952;21.714;2023-11-19T08:52:10;100705.75;;;3.77;93.39
43071;BME280;36278;47.952;21.714;2023-11-19T08:54:42;100704.81;;;3.78;95.19
43071;BME280;36278;47.952;21.714;2023-11-19T08:57:07;100708.38;;;3.97;93.26
43071;BME280;36278;47.952;21.714;2023-11-19T08:59:34;100721.28;;;4.02;92.10
43071;BME280;36278;47.952;21.714;2023-11-19T09:01:59;100724.50;;;3.88;92.65
43071;BME280;36278;47.952;21.714;2023-11-19T09:04:25;100709.28;;;3.96;92.62
43071;BME280;36278;47.952;21.714;2023-11-19T09:06:50;100710.91;;;3.99;91.56
43071;BME280;36278;47.952;21.714;2023-11-19T09:09:16;100711.44;;;4.07;91.38
43071;BME280;36278;47.952;21.714;2023-11-19T09:11:42;100710.03;;;4.20;91.13
43071;BME280;36278;47.952;21.714;2023-11-19T09:14:08;100701.03;;;4.05;94.03
43071;BME280;36278;47.952;21.714;2023-11-19T09:16:33;100698.69;;;4.19;90.81
43071;BME280;36278;47.952;21.714;2023-11-19T09:18:59;100694.88;;;4.27;91.36
43071;BME280;36278;47.952;21.714;2023-11-19T09:21:26;100692.50;;;4.20;90.41
43071;BME280;36278;47.952;21.714;2023-11-19T09:23:51;100691.78;;;4.37;88.04
43071;BME280;36278;47.952;21.714;2023-11-19T09:26:18;100683.47;;;4.28;89.36
43071;BME280;36278;47.952;21.714;2023-11-19T09:28:44;100671.44;;;4.42;87.23
43071;BME280;36278;47.952;21.714;2023-11-19T09:31:13;100662.16;;;4.54;87.71
43071;BME280;36278;47.952;21.714;2023-11-19T09:33:39;100646.09;;;4.81;88.25
43071;BME280;36278;47.952;21.714;2023-11-19T09:36:05;100650.88;;;5.09;83.97
43071;BME280;36278;47.952;21.714;2023-11-19T09:38:31;100653.59;;;5.07;84.41
43071;BME280;36278;47.952;21.714;2023-11-19T09:40:58;100647.97;;;5.15;82.69
43071;BME280;36278;47.952;21.714;2023-11-19T09:43:26;100637.97;;;5.23;84.00
43071;BME280;36278;47.952;21.714;2023-11-19T09:45:54;100646.97;;;5.17;83.72
43071;BME280;36278;47.952;21.714;2023-11-19T09:48:21;100637.63;;;5.29;82.25
43071;BME280;36278;47.952;21.714;2023-11-19T09:50:50;100641.38;;;5.42;81.22
43071;BME280;36278;47.952;21.714;2023-11-19T09:53:17;100644.09;;;5.75;79.70
43071;BME280;36278;47.952;21.714;2023-11-19T09:55:43;100650.09;;;5.96;80.01
43071;BME280;36278;47.952;21.714;2023-11-19T09:58:09;100640.56;;;5.94;77.56
43071;BME280;36278;47.952;21.714;2023-11-19T10:00:37;100657.63;;;6.02;79.08
43071;BME280;36278;47.952;21.714;2023-11-19T10:03:04;100654.16;;;6.02;78.99
43071;BME280;36278;47.952;21.714;2023-11-19T10:05:30;100650.16;;;6.12;77.69
43071;BME280;36278;47.952;21.714;2023-11-19T10:07:56;100652.88;;;6.26;75.08
43071;BME280;36278;47.952;21.714;2023-11-19T10:10:21;100658.94;;;6.28;76.05
43071;BME280;36278;47.952;21.714;2023-11-19T10:13:00;100669.22;;;6.33;75.08
43071;BME280;36278;47.952;21.714;2023-11-19T10:15:51;100671.69;;;6.18;74.29
